TFM - Tactical Decision Aid
ID: Runway Winds: CIG/VIS Threshold:

KLAS - Las Vegas/McCarran I, NV, US

Updated at: 2112 UTC 17 Jun 2019
Latest TAF at: 2039 UTC 17 Jun 2019

TAF Board

Time2056Z 17/22Z 17/23Z 18/00Z 18/01Z 18/02Z 18/03Z 18/04Z 18/05Z 18/06Z 18/07Z 18/08Z 18/09Z 18/10Z>>
Type OBS PRVL PRVL PRVL PRVL PRVL PRVL PRVL PRVL PRVL PRVL PRVL PRVL PRVL
VIS 10 >6 >6 >6 >6 >6 >6 >6 >6 >6 >6 >6 >6 >6
CIG -- -- 250 250 250 250 250 250 250 250 -- -- -- --
Cover SCT SCT BKN BKN BKN BKN BKN BKN BKN BKN SCT SCT SCT SCT
FltCat VFR VFR VFR VFR VFR VFR VFR VFR VFR VFR VFR VFR VFR VFR
WX -- -- -- -- -- -- -- -- -- -- -- -- -- --
WDir VRB 90 140 140 140 140 330 330 330 330 270 270 270 270
WSpd 3 6 7 7 7 7 11 11 11 11 6 6 6 6
WGst -- -- -- -- -- -- 20 20 20 20 -- -- -- --

TDA Impact Legend

  None Marginal Slight Moderate High
Visibility (sm) >5 3≤X≤5 1≤X<3 0.5≤X<1 <0.5
Ceiling (100 ft) >30 10≤X≤30 4≤X<10 2≤X<4 <2
Wind Speed (kt) <15 15≤X<25 25≤X<30 ≥30
Wind Gust (kt) <15 15≤X<25 25≤X<35 ≥35
Weather No Wx Reported VCTS -TS,-FZRA TS,FZRA +TS,+FZRA
TAF
KLAS 172039Z 1721/1824 09006KT P6SM FEW120 SCT250
  FM172300 14007KT P6SM SCT120 BKN250
  FM180300 33011G20KT P6SM SCT120 BKN250
  FM180700 27006KT P6SM FEW120 SCT250
  FM181400 VRB05KT P6SM SCT250


METAR
KLAS 172056Z VRB03KT 10SM SCT120 SCT250 35/05 A2980 RMK AO2 SLP065 ACC DSNT ALQDS T03500050 58022
KLAS 171956Z 00000KT 10SM SCT120 SCT250 34/07 A2984 RMK AO2 SLP077 ACC DSNT ALQDS T03390072
KLAS 171856Z 04003KT 10SM SCT120 SCT250 32/08 A2986 RMK AO2 SLP084 CB DSNT N AND NE ACC DSNT ALQDS T03220078
KLAS 171756Z 05006KT 10SM FEW120 SCT250 31/08 A2987 RMK AO2 LTG DSNT NW SLP088 TCU DSNT N T03110083 10317 20250 50000

Radar Display
Forecast Discussion